Time;durP1;ratioP1;P1;durP2;ratioP2;P2;SDS_P1;SDS_P2;PMS_P1;PMS_P2;Temp;Humidity;BMP_temperature;BMP_pressure;BME280_temperature;BME280_humidity;BME280_pressure;Samples;Min_cycle;Max_cycle;Signal;HPM_P1;HPM_P2
2022/08/05 00:01:55;;;;;;;7.03;3.10;;;;;;;27.75;51.94;99849.16;5090615;28;20520;-64
2022/08/05 00:04:20;;;;;;;4.20;2.60;;;;;;;27.76;52.05;99850.81;5090614;28;20236;-64
2022/08/05 00:06:46;;;;;;;4.27;2.90;;;;;;;27.77;51.87;99845.81;5090743;28;20189;-64
2022/08/05 00:09:11;;;;;;;4.13;3.00;;;;;;;27.76;51.76;99868.22;5090268;28;20213;-64
2022/08/05 00:11:36;;;;;;;3.27;2.53;;;;;;;27.75;51.68;99889.78;5090472;28;20287;-64
2022/08/05 00:14:02;;;;;;;3.00;2.47;;;;;;;27.73;51.22;99908.91;5090696;28;20182;-64
2022/08/05 00:16:27;;;;;;;4.30;3.03;;;;;;;27.63;51.58;99924.50;5089267;28;20228;-64
2022/08/05 00:18:53;;;;;;;4.20;2.60;;;;;;;27.62;51.09;99914.16;5090578;28;20194;-64
2022/08/05 00:21:18;;;;;;;3.27;2.40;;;;;;;27.66;51.12;99909.09;5080788;28;20186;-64
2022/08/05 00:23:45;;;;;;;4.80;3.00;;;;;;;27.69;51.59;99900.31;5070384;28;20175;-64
2022/08/05 00:26:10;;;;;;;4.90;3.23;;;;;;;27.68;51.47;99895.78;5072458;28;20282;-64
2022/08/05 00:28:36;;;;;;;4.03;2.80;;;;;;;27.71;51.12;99894.88;5073880;28;20409;-64
2022/08/05 00:31:01;;;;;;;3.10;2.30;;;;;;;27.71;51.40;99888.25;5073778;28;20558;-64
2022/08/05 00:33:27;;;;;;;3.90;2.77;;;;;;;27.72;50.87;99896.50;5074064;28;20183;-64
2022/08/05 00:35:52;;;;;;;5.90;3.20;;;;;;;27.72;51.09;99878.28;5073719;28;20194;-64
2022/08/05 00:38:18;;;;;;;4.20;2.70;;;;;;;27.72;51.74;99872.47;5073608;28;20206;-64
2022/08/05 00:40:53;;;;;;;4.80;2.60;;;;;;;27.72;51.16;99870.41;5073677;28;20229;-64
2022/08/05 00:43:19;;;;;;;3.67;2.90;;;;;;;27.72;51.55;99875.38;5073540;28;20187;-64
2022/08/05 00:45:46;;;;;;;6.07;2.83;;;;;;;27.71;51.47;99883.28;5079375;28;20417;-64
2022/08/05 00:48:15;;;;;;;4.13;2.70;;;;;;;27.71;51.04;99877.47;5093954;28;20196;-64
2022/08/05 00:50:42;;;;;;;3.60;2.40;;;;;;;27.71;50.86;99883.28;5093851;28;20417;-64
2022/08/05 00:53:08;;;;;;;4.30;2.93;;;;;;;27.70;51.10;99899.03;5093772;28;20404;-64
2022/08/05 00:55:33;;;;;;;3.60;2.63;;;;;;;27.72;51.66;99895.69;5093552;28;20980;-64
2022/08/05 00:57:59;;;;;;;3.90;2.77;;;;;;;27.71;51.00;99897.78;5093152;28;20243;-64
2022/08/05 01:00:28;;;;;;;6.00;3.27;;;;;;;27.70;51.31;99895.31;5093835;28;20177;-64
2022/08/05 01:02:54;;;;;;;4.80;2.50;;;;;;;27.69;51.85;99888.69;5093555;28;20178;-64
2022/08/05 01:05:19;;;;;;;6.50;3.07;;;;;;;27.69;51.64;99894.50;5093389;28;20463;-64
2022/08/05 01:07:45;;;;;;;4.17;3.00;;;;;;;27.69;51.44;99879.19;5093206;28;20465;-64
2022/08/05 01:10:11;;;;;;;3.77;2.50;;;;;;;27.68;50.86;99884.16;5092443;28;20233;-64
2022/08/05 01:12:37;;;;;;;4.37;2.43;;;;;;;27.69;51.63;99893.69;5074295;28;20661;-64
2022/08/05 01:15:05;;;;;;;3.60;2.37;;;;;;;27.68;51.45;99889.97;5091525;28;20428;-64
2022/08/05 01:17:39;;;;;;;3.77;2.67;;;;;;;27.67;51.33;99902.84;5074275;28;20211;-64
2022/08/05 01:20:29;;;;;;;5.10;2.80;;;;;;;27.65;50.93;99914.06;5054616;28;20452;-64
2022/08/05 01:23:10;;;;;;;3.63;2.73;;;;;;;27.51;51.15;99914.44;5072757;28;20820;-64
2022/08/05 01:26:03;;;;;;;3.70;2.60;;;;;;;27.58;51.49;99904.72;5071770;28;20429;-64
2022/08/05 01:28:36;;;;;;;2.70;2.00;;;;;;;27.62;51.30;99908.38;5072975;28;20904;-64
2022/08/05 01:31:33;;;;;;;5.20;3.57;;;;;;;27.63;51.10;99910.81;5072695;28;20892;-64
2022/08/05 01:34:01;;;;;;;4.37;2.63;;;;;;;27.65;51.37;99907.47;5071430;28;20427;-64
2022/08/05 01:36:30;;;;;;;3.40;2.50;;;;;;;27.64;51.30;99900.84;5073726;28;20465;-64
2022/08/05 01:38:55;;;;;;;3.23;2.43;;;;;;;27.65;51.45;99896.66;5072931;28;20464;-64
2022/08/05 01:41:21;;;;;;;5.90;2.87;;;;;;;27.65;51.55;99893.78;5077490;28;20424;-64
2022/08/05 01:43:47;;;;;;;3.33;2.50;;;;;;;27.65;51.54;99896.66;5092631;28;20653;-64
2022/08/05 01:46:13;;;;;;;4.00;2.70;;;;;;;27.65;51.22;99893.78;5091257;28;20424;-64
2022/08/05 01:48:38;;;;;;;3.10;2.50;;;;;;;27.65;51.50;99905.38;5092709;28;20427;-64
2022/08/05 01:51:03;;;;;;;4.10;2.60;;;;;;;27.65;51.39;99890.88;5073867;28;20178;-64
2022/08/05 01:53:29;;;;;;;4.20;3.10;;;;;;;27.53;51.81;99911.91;5091263;28;20182;-64
2022/08/05 01:55:55;;;;;;;3.60;2.97;;;;;;;27.56;51.62;99921.78;5092481;28;20544;-64
2022/08/05 01:58:20;;;;;;;4.07;2.83;;;;;;;27.57;51.40;99923.41;5074087;28;20205;-64
2022/08/05 02:00:49;;;;;;;4.97;2.80;;;;;;;27.57;51.22;99921.34;5074158;28;20190;-64
2022/08/05 02:03:24;;;;;;;3.60;2.50;;;;;;;27.56;51.52;99934.22;5091199;28;20186;-64
2022/08/05 02:05:50;;;;;;;4.10;2.90;;;;;;;27.55;51.48;99946.25;5091063;28;20459;-64
2022/08/05 02:08:16;;;;;;;4.27;3.00;;;;;;;27.55;51.63;99952.88;5090908;28;20413;-64
2022/08/05 02:10:43;;;;;;;6.70;2.50;;;;;;;27.55;51.75;99949.97;5073241;28;20463;-64
2022/08/05 02:13:15;;;;;;;4.40;2.90;;;;;;;27.55;52.01;99952.88;5090690;28;20269;-64
2022/08/05 02:15:46;;;;;;;4.20;2.90;;;;;;;27.56;51.95;99954.53;5090816;28;20416;-64
2022/08/05 02:18:18;;;;;;;5.97;2.70;;;;;;;27.57;52.00;99946.63;5074742;28;20432;-64
2022/08/05 02:20:52;;;;;;;4.20;2.47;;;;;;;27.57;52.07;99941.66;5090401;28;20431;-64
2022/08/05 02:23:21;;;;;;;3.90;2.80;;;;;;;27.58;51.90;99925.88;5070407;28;20436;-64
2022/08/05 02:25:46;;;;;;;4.50;3.10;;;;;;;27.58;52.33;99919.25;5053917;28;20417;-64
2022/08/05 02:28:12;;;;;;;4.13;2.50;;;;;;;27.58;52.25;99908.47;5053523;28;20820;-64
2022/08/05 02:30:43;;;;;;;3.40;2.87;;;;;;;27.59;52.31;99921.69;5071409;28;20191;-64
2022/08/05 02:33:08;;;;;;;7.13;2.40;;;;;;;27.58;52.36;99914.25;5070199;28;20199;-64
2022/08/05 02:35:34;;;;;;;3.87;2.70;;;;;;;27.58;51.94;99922.97;5071432;28;20911;-64
2022/08/05 02:37:59;;;;;;;4.60;3.20;;;;;;;27.60;52.21;99910.91;5070143;28;20687;-64
2022/08/05 02:40:24;;;;;;;14.90;3.13;;;;;;;27.59;52.25;99894.78;5069806;28;20565;-64
2022/08/05 02:42:50;;;;;;;8.63;2.47;;;;;;;27.59;52.59;99881.09;5079327;28;20186;-64
2022/08/05 02:45:15;;;;;;;4.70;2.63;;;;;;;27.59;51.85;99877.38;5090638;28;20178;-64
2022/08/05 02:47:41;;;;;;;3.50;2.60;;;;;;;27.58;52.14;99882.34;5090239;28;20171;-64
2022/08/05 02:50:07;;;;;;;4.30;3.20;;;;;;;27.57;51.94;99886.53;5090909;28;20197;-64
2022/08/05 02:52:32;;;;;;;5.00;3.03;;;;;;;27.59;52.47;99889.78;5089070;28;20178;-64
2022/08/05 02:54:58;;;;;;;8.87;2.60;;;;;;;27.58;52.57;99888.16;5089611;28;20548;-64
2022/08/05 02:57:24;;;;;;;6.93;2.67;;;;;;;27.58;52.31;99891.06;5090075;28;20198;-64
2022/08/05 02:59:49;;;;;;;3.20;2.30;;;;;;;27.58;52.03;99891.06;5091549;28;20429;-64
2022/08/05 03:02:17;;;;;;;5.73;2.87;;;;;;;27.56;52.29;99893.59;5089545;28;20178;-64
2022/08/05 03:04:43;;;;;;;3.77;2.30;;;;;;;27.53;51.73;99885.81;5089948;28;20220;-64
2022/08/05 03:07:08;;;;;;;2.83;2.37;;;;;;;27.54;52.33;99890.31;5088428;28;20424;-64
2022/08/05 03:09:34;;;;;;;3.87;2.70;;;;;;;27.56;53.14;99890.72;5090189;28;20174;-64
2022/08/05 03:12:00;;;;;;;3.20;2.40;;;;;;;27.56;52.80;99889.88;5071783;28;20230;-64
2022/08/05 03:14:25;;;;;;;4.27;2.80;;;;;;;27.56;52.89;99899.41;5090316;28;20425;-64
2022/08/05 03:16:51;;;;;;;5.67;3.00;;;;;;;27.55;52.20;99906.47;5089957;28;20181;-64
2022/08/05 03:19:16;;;;;;;3.90;2.77;;;;;;;27.52;52.60;99915.25;5091191;28;20182;-64
2022/08/05 03:21:42;;;;;;;7.37;2.57;;;;;;;27.50;52.73;99920.69;5089467;28;20178;-64
2022/08/05 03:24:07;;;;;;;6.83;3.00;;;;;;;27.49;52.91;99940.16;5106277;28;20186;-64
2022/08/05 03:26:33;;;;;;;4.53;2.30;;;;;;;27.48;52.47;99943.50;5089016;28;20177;-64
2022/08/05 03:28:59;;;;;;;3.93;2.50;;;;;;;27.47;52.49;99957.22;5053580;28;20171;-64
2022/08/05 03:31:24;;;;;;;4.47;2.70;;;;;;;27.46;53.04;99960.56;5069762;28;20178;-64
2022/08/05 03:33:50;;;;;;;7.50;3.20;;;;;;;27.46;53.25;99970.09;5068367;28;20178;-64
2022/08/05 03:36:16;;;;;;;7.97;3.13;;;;;;;27.45;52.63;99962.63;5069503;28;20502;-64
2022/08/05 03:38:41;;;;;;;4.57;2.97;;;;;;;27.47;52.95;99954.31;5072482;28;20299;-64
2022/08/05 03:41:07;;;;;;;3.20;2.50;;;;;;;27.49;52.83;99936.47;5071837;28;20532;-64
2022/08/05 03:43:32;;;;;;;3.20;2.20;;;;;;;27.49;52.78;99934.38;5089427;28;20182;-64
2022/08/05 03:45:58;;;;;;;4.43;2.80;;;;;;;27.51;52.69;99945.53;5090814;28;20656;-64
2022/08/05 03:48:23;;;;;;;5.23;3.33;;;;;;;27.50;52.83;99952.59;5090974;28;20907;-64
2022/08/05 03:51:01;;;;;;;4.47;2.90;;;;;;;27.47;53.22;99977.53;5089913;28;20564;-64
2022/08/05 03:53:54;;;;;;;4.87;2.70;;;;;;;27.46;53.18;99993.28;5088664;28;20796;-64
2022/08/05 03:56:21;;;;;;;5.57;3.37;;;;;;;27.45;53.11;100008.25;5089120;28;20405;-64
2022/08/05 03:58:47;;;;;;;5.97;3.07;;;;;;;27.44;53.03;100021.91;5089650;28;20977;-64
2022/08/05 04:01:12;;;;;;;5.00;3.50;;;;;;;27.45;53.50;100046.75;5090493;28;20428;-64
2022/08/05 04:03:37;;;;;;;4.87;2.70;;;;;;;27.45;52.93;100060.44;5093555;28;20182;-64
2022/08/05 04:06:04;;;;;;;4.43;3.30;;;;;;;27.42;53.60;100078.72;5093155;28;20182;-64
2022/08/05 04:08:30;;;;;;;5.43;3.37;;;;;;;27.24;54.23;100093.59;5093319;28;20299;-64
2022/08/05 04:10:56;;;;;;;5.30;2.83;;;;;;;27.34;53.35;100114.97;5092880;28;20481;-64
2022/08/05 04:13:21;;;;;;;4.70;3.13;;;;;;;27.29;53.69;100122.06;5092723;28;20195;-64
2022/08/05 04:15:48;;;;;;;6.57;3.50;;;;;;;27.35;53.56;100122.38;5093239;28;20524;-64
2022/08/05 04:18:13;;;;;;;4.40;3.10;;;;;;;27.34;53.92;100138.94;5093005;28;20194;-64
2022/08/05 04:20:39;;;;;;;6.40;3.60;;;;;;;27.34;53.37;100165.06;5075431;28;20938;-64
2022/08/05 04:23:04;;;;;;;5.40;2.60;;;;;;;27.29;53.76;100161.88;5093146;28;20229;-64
2022/08/05 04:25:29;;;;;;;6.33;3.10;;;;;;;27.33;53.84;100169.22;5094432;28;20182;-64
2022/08/05 04:27:55;;;;;;;9.07;3.57;;;;;;;27.33;53.64;100174.19;5094152;28;20220;-64
2022/08/05 04:30:21;;;;;;;7.00;3.20;;;;;;;27.24;52.69;100183.47;5093994;28;20178;-64
2022/08/05 04:32:46;;;;;;;5.63;2.90;;;;;;;27.24;53.34;100195.06;5093962;28;20420;-64
2022/08/05 04:35:12;;;;;;;5.40;3.30;;;;;;;27.30;52.92;100207.78;5094161;28;20181;-64
2022/08/05 04:37:37;;;;;;;4.23;3.00;;;;;;;27.24;53.00;100200.06;5093903;28;20194;-64
2022/08/05 04:40:03;;;;;;;8.97;3.30;;;;;;;27.30;52.77;100204.09;5093876;28;20699;-64
2022/08/05 04:42:29;;;;;;;7.37;3.20;;;;;;;27.33;52.79;100206.91;5093938;28;20178;-64
2022/08/05 04:44:54;;;;;;;4.03;3.00;;;;;;;27.34;52.47;100202.75;5094017;28;20473;-64
2022/08/05 04:47:20;;;;;;;5.53;2.77;;;;;;;27.36;52.46;100214.75;5093527;28;20185;-64
2022/08/05 04:49:45;;;;;;;4.93;3.43;;;;;;;27.35;52.37;100229.69;5094056;28;20183;-64
2022/08/05 04:52:11;;;;;;;7.47;2.60;;;;;;;27.28;51.86;100206.59;5093752;28;20175;-64
2022/08/05 04:54:36;;;;;;;6.23;2.67;;;;;;;27.34;51.92;100194.03;5093668;28;20182;-64
2022/08/05 04:57:02;;;;;;;3.70;2.80;;;;;;;27.37;52.19;100178.66;5093519;28;20170;-64
2022/08/05 04:59:27;;;;;;;3.40;2.80;;;;;;;27.38;52.08;100189.00;5093704;28;20229;-64
2022/08/05 05:01:52;;;;;;;3.93;3.00;;;;;;;27.37;52.38;100193.16;5093401;28;20178;-64
2022/08/05 05:04:18;;;;;;;4.57;2.73;;;;;;;27.38;52.12;100202.66;5093644;28;20205;-64
2022/08/05 05:06:43;;;;;;;6.23;3.10;;;;;;;27.37;51.90;100203.94;5093553;28;20178;-63
2022/08/05 05:09:10;;;;;;;7.90;3.00;;;;;;;27.38;51.94;100197.69;5093461;28;20519;-63
2022/08/05 05:11:35;;;;;;;4.13;2.50;;;;;;;27.41;52.81;100188.13;5092430;28;20705;-63
2022/08/05 05:14:02;;;;;;;3.70;2.40;;;;;;;27.41;52.22;100193.94;5092129;28;20440;-63
2022/08/05 05:16:28;;;;;;;4.30;3.30;;;;;;;27.42;52.58;100207.16;5092415;28;20182;-63
2022/08/05 05:18:53;;;;;;;6.53;2.77;;;;;;;27.43;52.54;100220.38;5087938;28;20455;-63
2022/08/05 05:21:19;;;;;;;5.20;2.77;;;;;;;27.43;52.55;100205.88;5090277;28;20179;-63
2022/08/05 05:23:44;;;;;;;4.37;2.77;;;;;;;27.43;52.50;100205.06;5092423;28;20178;-63
2022/08/05 05:26:09;;;;;;;3.53;2.57;;;;;;;27.44;52.51;100195.91;5092410;28;20185;-63
2022/08/05 05:28:35;;;;;;;5.97;3.00;;;;;;;27.41;52.84;100204.69;5092906;28;20514;-63
2022/08/05 05:31:00;;;;;;;5.47;2.53;;;;;;;27.40;52.77;100215.47;5092917;28;20651;-63
2022/08/05 05:33:26;;;;;;;6.10;2.67;;;;;;;27.41;53.46;100220.03;5092958;28;20693;-63
2022/08/05 05:35:51;;;;;;;6.50;2.93;;;;;;;27.42;52.92;100212.13;5093163;28;20203;-63
2022/08/05 05:38:17;;;;;;;5.57;3.47;;;;;;;27.43;53.45;100226.19;5089832;28;20198;-63
2022/08/05 05:40:42;;;;;;;4.07;2.57;;;;;;;27.43;53.19;100226.19;5092853;28;20253;-63
2022/08/05 05:43:08;;;;;;;6.13;3.30;;;;;;;27.44;53.28;100222.03;5092688;28;20231;-63
2022/08/05 05:45:33;;;;;;;4.57;2.53;;;;;;;27.45;53.66;100220.75;5092581;28;20182;-63
2022/08/05 05:47:58;;;;;;;4.30;2.63;;;;;;;27.45;53.96;100214.94;5091276;28;20228;-63
2022/08/05 05:50:24;;;;;;;3.63;3.07;;;;;;;27.47;53.53;100221.16;5092092;28;20182;-63
2022/08/05 05:52:49;;;;;;;4.70;2.77;;;;;;;27.46;53.42;100231.13;5092639;28;20265;-63
2022/08/05 05:55:16;;;;;;;7.17;3.33;;;;;;;27.46;54.12;100236.91;5092642;28;20179;-63
2022/08/05 05:57:45;;;;;;;7.77;3.17;;;;;;;27.44;54.65;100227.03;5092671;28;20213;-63
2022/08/05 06:00:16;;;;;;;10.10;3.40;;;;;;;27.44;54.33;100215.41;5090725;28;20417;-63
2022/08/05 06:02:42;;;;;;;6.00;2.83;;;;;;;27.44;54.48;100227.03;5092224;28;20439;-63
2022/08/05 06:05:08;;;;;;;8.10;3.33;;;;;;;27.43;54.33;100225.34;5092454;28;20416;-63
2022/08/05 06:07:33;;;;;;;8.57;2.83;;;;;;;27.44;54.74;100233.63;5091113;28;20191;-63
2022/08/05 06:09:59;;;;;;;6.27;3.00;;;;;;;27.43;54.53;100225.34;5092013;28;20775;-63
2022/08/05 06:12:24;;;;;;;3.87;2.60;;;;;;;27.44;54.89;100224.13;5091894;28;20657;-64
2022/08/05 06:14:49;;;;;;;5.90;2.80;;;;;;;27.41;54.36;100233.69;5091987;28;20178;-64
2022/08/05 06:17:15;;;;;;;5.20;2.93;;;;;;;27.42;54.60;100236.16;5092061;28;20185;-63
2022/08/05 06:19:41;;;;;;;7.23;3.10;;;;;;;27.42;54.80;100241.97;5090570;28;20191;-64
2022/08/05 06:22:07;;;;;;;6.13;3.40;;;;;;;27.42;54.45;100236.16;5072563;28;20950;-64
2022/08/05 06:24:33;;;;;;;10.20;3.70;;;;;;;27.44;54.75;100239.41;5071365;28;20187;-64
2022/08/05 06:26:58;;;;;;;6.20;3.03;;;;;;;27.46;54.84;100238.97;5071843;28;20178;-64
2022/08/05 06:29:24;;;;;;;6.60;3.23;;;;;;;27.43;55.37;100231.16;5071798;28;20174;-64
2022/08/05 06:31:49;;;;;;;6.53;3.07;;;;;;;27.45;55.00;100235.25;5071712;28;20201;-64
2022/08/05 06:34:14;;;;;;;5.83;3.33;;;;;;;27.47;54.97;100244.34;5071506;28;20179;-64
2022/08/05 06:36:40;;;;;;;7.83;2.73;;;;;;;27.47;54.90;100250.16;5071600;28;20179;-64
2022/08/05 06:39:05;;;;;;;4.90;3.50;;;;;;;27.47;54.50;100250.16;5071417;28;20264;-64
2022/08/05 06:41:31;;;;;;;6.20;3.10;;;;;;;27.49;54.61;100246.81;5071365;28;20201;-64
2022/08/05 06:43:56;;;;;;;4.63;3.00;;;;;;;27.49;55.02;100252.63;5089174;28;20205;-64
2022/08/05 06:46:21;;;;;;;4.63;3.30;;;;;;;27.49;54.70;100265.00;5091851;28;20182;-64
2022/08/05 06:48:47;;;;;;;8.23;3.63;;;;;;;27.50;54.57;100269.53;5091647;28;20182;-64
2022/08/05 06:51:12;;;;;;;6.03;3.57;;;;;;;27.50;55.05;100268.75;5091481;28;20175;-64
2022/08/05 06:53:38;;;;;;;6.97;3.47;;;;;;;27.45;55.36;100272.16;5091383;28;20179;-64
2022/08/05 06:56:04;;;;;;;5.20;3.00;;;;;;;27.28;55.38;100277.00;5091671;28;20190;-64
2022/08/05 06:58:30;;;;;;;6.23;3.30;;;;;;;27.34;55.43;100271.53;5091260;28;20216;-63
2022/08/05 07:01:01;;;;;;;8.00;3.67;;;;;;;27.44;55.13;100288.72;5091562;28;20482;-63
2022/08/05 07:03:27;;;;;;;6.50;3.17;;;;;;;27.46;54.98;100292.03;5091381;28;20451;-63
2022/08/05 07:05:53;;;;;;;7.63;3.37;;;;;;;27.46;54.88;100285.38;5091320;28;20423;-63
2022/08/05 07:08:19;;;;;;;5.20;3.23;;;;;;;27.46;54.49;100280.41;5090678;28;20859;-64
2022/08/05 07:10:45;;;;;;;4.60;3.20;;;;;;;27.48;54.90;100274.16;5077863;28;20240;-64
2022/08/05 07:18:38;;;;;;;5.00;2.93;;;;;;;27.45;53.56;100275.06;5086489;28;20895;-64
2022/08/05 07:21:04;;;;;;;5.23;3.53;;;;;;;27.47;54.31;100267.56;5071281;28;20425;-64
2022/08/05 07:23:30;;;;;;;5.67;3.63;;;;;;;27.51;54.50;100276.19;5070978;28;20190;-64
2022/08/05 07:25:55;;;;;;;5.53;3.50;;;;;;;27.47;53.67;100290.75;5071195;28;20413;-63
2022/08/05 07:28:21;;;;;;;7.20;2.87;;;;;;;27.46;53.55;100289.13;5070914;28;20175;-63
2022/08/05 07:30:46;;;;;;;3.47;2.40;;;;;;;27.47;54.02;100284.94;5070812;28;20183;-63
2022/08/05 07:33:12;;;;;;;5.40;3.13;;;;;;;27.44;53.06;100285.81;5073452;28;20664;-64
2022/08/05 07:35:37;;;;;;;5.10;2.80;;;;;;;27.30;53.30;100280.28;5074015;28;20178;-64
2022/08/05 07:38:03;;;;;;;3.50;2.67;;;;;;;27.41;53.10;100278.03;5075057;28;20210;-64
2022/08/05 07:40:28;;;;;;;6.57;3.20;;;;;;;27.45;53.34;100272.16;5075087;28;20175;-64
2022/08/05 07:42:54;;;;;;;5.57;3.00;;;;;;;27.47;53.92;100261.75;5075089;28;20187;-63
2022/08/05 07:45:19;;;;;;;4.80;3.13;;;;;;;27.48;53.74;100240.19;5077121;28;20182;-63
2022/08/05 07:47:45;;;;;;;5.70;3.70;;;;;;;27.50;53.75;100225.25;5094898;28;20186;-63
2022/08/05 07:50:10;;;;;;;4.67;3.30;;;;;;;27.47;53.08;100224.03;5095004;28;20206;-63
2022/08/05 07:52:40;;;;;;;8.00;3.70;;;;;;;27.48;53.76;100205.38;5094828;28;20513;-63
2022/08/05 07:55:06;;;;;;;5.20;3.23;;;;;;;27.51;53.24;100201.59;5094109;28;20178;-63
2022/08/05 07:57:31;;;;;;;6.90;3.00;;;;;;;27.50;53.53;100190.44;5092392;28;20454;-63
2022/08/05 07:59:57;;;;;;;4.23;3.00;;;;;;;27.52;53.42;100193.69;5093983;28;20432;-63
2022/08/05 08:02:26;;;;;;;4.73;2.97;;;;;;;27.50;52.98;100181.72;5093235;28;20197;-63
2022/08/05 08:04:51;;;;;;;8.70;3.30;;;;;;;27.48;53.26;100185.06;5092410;28;20186;-63
2022/08/05 08:07:17;;;;;;;5.00;3.33;;;;;;;27.49;53.35;100175.09;5090710;28;20424;-63
2022/08/05 08:09:42;;;;;;;6.63;3.00;;;;;;;27.50;52.77;100181.72;5071228;28;20202;-63
2022/08/05 08:12:08;;;;;;;9.17;4.50;;;;;;;27.50;53.75;100173.84;5091786;28;20210;-63
2022/08/05 08:14:33;;;;;;;8.10;4.40;;;;;;;27.53;53.27;100170.06;5092942;28;20186;-63
2022/08/05 08:16:59;;;;;;;6.00;3.30;;;;;;;27.55;52.96;100176.22;5081522;28;20187;-63
2022/08/05 08:19:24;;;;;;;4.83;3.27;;;;;;;27.56;52.30;100180.78;5073375;28;20202;-63
2022/08/05 08:21:50;;;;;;;5.10;3.70;;;;;;;27.60;52.69;100177.78;5074032;28;20630;-63
2022/08/05 08:24:15;;;;;;;9.83;6.07;;;;;;;27.60;51.92;100178.59;5073423;28;20208;-63
2022/08/05 08:26:40;;;;;;;8.97;3.50;;;;;;;27.59;51.60;100171.16;5073197;28;20238;-63
2022/08/05 08:29:06;;;;;;;4.97;4.03;;;;;;;27.61;52.64;100174.47;5076022;28;20224;-63
2022/08/05 08:31:31;;;;;;;5.80;3.47;;;;;;;27.62;52.65;100158.69;5073147;28;20171;-63
2022/08/05 08:33:57;;;;;;;4.93;3.47;;;;;;;27.61;51.56;100151.25;5073364;28;20507;-63
2022/08/05 08:36:22;;;;;;;6.00;2.63;;;;;;;27.61;51.48;100154.16;5073245;28;20205;-63
2022/08/05 08:38:48;;;;;;;3.80;3.13;;;;;;;27.62;51.72;100157.84;5072121;28;20237;-63
2022/08/05 08:41:13;;;;;;;4.20;3.10;;;;;;;27.60;50.34;100152.47;5073720;28;20171;-63
2022/08/05 08:43:38;;;;;;;5.37;3.07;;;;;;;27.56;51.70;100154.66;5072442;28;20236;-63
2022/08/05 08:46:04;;;;;;;5.67;3.40;;;;;;;27.60;51.66;100143.78;5079876;28;20641;-63
2022/08/05 08:48:30;;;;;;;4.40;3.03;;;;;;;27.61;51.12;100151.25;5092673;28;20186;-63
2022/08/05 08:50:56;;;;;;;7.53;3.10;;;;;;;27.62;51.30;100147.06;5093699;28;20417;-63
2022/08/05 08:53:21;;;;;;;4.43;2.80;;;;;;;27.65;51.04;100151.97;5093006;28;20214;-63
2022/08/05 08:55:46;;;;;;;6.07;3.10;;;;;;;27.66;50.37;100150.72;5074848;28;20174;-63
2022/08/05 08:58:13;;;;;;;7.40;2.70;;;;;;;27.68;51.35;100150.25;5091896;28;20551;-63
2022/08/05 09:00:40;;;;;;;3.87;2.47;;;;;;;27.68;51.25;100162.69;5092074;28;20678;-63
2022/08/05 09:03:05;;;;;;;5.40;2.77;;;;;;;27.69;50.82;100164.31;5082869;28;20421;-63
2022/08/05 09:05:31;;;;;;;4.93;3.10;;;;;;;27.65;51.02;100172.28;5072071;28;20786;-63
2022/08/05 09:07:56;;;;;;;6.17;3.10;;;;;;;27.68;51.02;100177.19;5072453;28;20912;-63
2022/08/05 09:10:22;;;;;;;4.93;3.00;;;;;;;27.70;50.20;100180.47;5073134;28;20234;-63
2022/08/05 09:12:47;;;;;;;4.90;3.00;;;;;;;27.71;49.56;100181.28;5081292;28;20519;-63
2022/08/05 09:15:13;;;;;;;4.43;2.87;;;;;;;27.70;50.15;100174.66;5093347;28;20185;-63
2022/08/05 09:17:39;;;;;;;5.50;2.70;;;;;;;27.72;50.33;100180.00;5092726;28;20205;-63
2022/08/05 09:20:05;;;;;;;4.87;2.57;;;;;;;27.71;50.48;100167.59;5093266;28;20182;-63
2022/08/05 09:22:57;;;;;;;5.43;3.27;;;;;;;27.74;50.43;100178.31;5091383;28;20470;-63
2022/08/05 09:25:22;;;;;;;4.70;2.70;;;;;;;27.76;50.01;100181.59;5071939;28;20242;-63
2022/08/05 09:27:47;;;;;;;4.80;2.60;;;;;;;27.74;50.64;100166.69;5072860;28;20507;-63
2022/08/05 09:30:15;;;;;;;4.37;2.60;;;;;;;27.76;50.16;100169.16;5072743;28;20626;-63
2022/08/05 09:32:40;;;;;;;3.80;2.67;;;;;;;27.76;49.87;100186.56;5072743;28;20182;-62
2022/08/05 09:35:11;;;;;;;5.60;3.70;;;;;;;27.75;49.92;100182.84;5074293;28;20417;-63
2022/08/05 09:37:37;;;;;;;5.63;2.50;;;;;;;27.77;49.66;100194.84;5071737;28;20635;-63
2022/08/05 09:40:03;;;;;;;4.07;2.87;;;;;;;27.77;49.77;100188.19;5071359;28;20433;-62
2022/08/05 09:42:38;;;;;;;9.90;2.70;;;;;;;27.78;49.41;100184.03;5071646;28;20283;-62
2022/08/05 09:45:07;;;;;;;4.10;2.90;;;;;;;27.79;49.54;100188.63;5083661;28;20432;-62
2022/08/05 09:47:33;;;;;;;4.17;2.90;;;;;;;27.77;50.10;100173.69;5091826;28;20408;-62
2022/08/05 09:49:58;;;;;;;7.97;2.97;;;;;;;27.76;50.36;100169.16;5091220;28;20413;-62
2022/08/05 09:52:31;;;;;;;10.03;2.90;;;;;;;27.77;50.68;100171.63;5091155;28;20190;-63
2022/08/05 09:55:09;;;;;;;6.83;3.17;;;;;;;27.80;49.97;100176.53;5092983;28;20209;-62
2022/08/05 09:57:35;;;;;;;4.07;2.87;;;;;;;27.80;50.48;100170.72;5092026;28;20795;-63
2022/08/05 10:00:07;;;;;;;5.27;2.97;;;;;;;27.83;50.25;100169.84;5090025;28;20424;-63
2022/08/05 10:02:34;;;;;;;4.47;2.70;;;;;;;27.82;50.16;100170.28;5076626;28;20247;-63
2022/08/05 10:05:27;;;;;;;3.87;2.53;;;;;;;27.85;50.49;100173.13;5091123;28;20450;-63
2022/08/05 10:07:57;;;;;;;5.03;2.80;;;;;;;27.85;49.92;100172.31;5078409;28;20512;-63
2022/08/05 10:10:24;;;;;;;6.47;3.07;;;;;;;27.85;50.10;100173.13;5070777;28;20556;-63
2022/08/05 10:12:52;;;;;;;6.73;3.50;;;;;;;27.86;50.29;100177.69;5078037;28;20420;-64
2022/08/05 10:15:21;;;;;;;3.33;2.47;;;;;;;27.88;49.93;100180.09;5071245;28;20426;-64
2022/08/05 10:18:04;;;;;;;3.13;2.50;;;;;;;27.85;49.71;100181.81;5069987;28;20986;-62
2022/08/05 10:20:33;;;;;;;3.90;2.40;;;;;;;27.92;48.97;100186.66;5088276;28;20436;-62
2022/08/05 10:22:59;;;;;;;4.40;2.70;;;;;;;27.93;49.06;100191.19;5091655;28;20570;-64
2022/08/05 10:25:25;;;;;;;6.80;2.77;;;;;;;27.94;48.36;100189.94;5085177;28;20508;-62
2022/08/05 10:27:52;;;;;;;4.70;3.00;;;;;;;27.92;48.91;100184.59;5071955;28;20421;-64
2022/08/05 10:30:18;;;;;;;5.87;2.70;;;;;;;27.89;49.07;100185.47;5071579;28;20194;-64
2022/08/05 10:32:43;;;;;;;4.67;2.60;;;;;;;27.89;49.26;100182.56;5071482;28;20431;-64
2022/08/05 10:35:09;;;;;;;5.33;2.67;;;;;;;27.90;49.47;100186.31;5053792;28;20575;-63
2022/08/05 10:37:34;;;;;;;4.47;3.00;;;;;;;27.90;49.13;100181.28;5071624;28;20210;-64
2022/08/05 10:40:00;;;;;;;4.83;3.17;;;;;;;27.92;49.04;100175.88;5071490;28;20649;-64
2022/08/05 10:42:26;;;;;;;5.30;2.50;;;;;;;27.90;48.98;100169.69;5058860;28;20190;-64
2022/08/05 10:44:53;;;;;;;5.23;2.83;;;;;;;27.96;49.07;100176.63;5064860;28;20436;-64
2022/08/05 10:47:18;;;;;;;6.93;2.70;;;;;;;27.93;49.46;100174.59;5066375;28;20550;-64
2022/08/05 10:50:01;;;;;;;5.43;2.77;;;;;;;27.93;49.94;100174.59;5068811;28;20444;-64
2022/08/05 10:52:43;;;;;;;4.10;2.10;;;;;;;27.98;48.91;100173.25;5070474;28;20207;-64
2022/08/05 10:55:10;;;;;;;6.77;2.60;;;;;;;28.03;48.47;100167.75;5070725;28;20454;-64
2022/08/05 10:57:36;;;;;;;4.63;2.90;;;;;;;28.03;48.20;100173.56;5071042;28;20538;-64
2022/08/05 11:00:16;;;;;;;8.63;2.57;;;;;;;28.04;47.95;100163.56;5071517;28;20445;-64
2022/08/05 11:03:03;;;;;;;5.73;2.37;;;;;;;28.08;48.01;100161.41;5071106;28;20425;-64
2022/08/05 11:05:28;;;;;;;3.80;2.20;;;;;;;28.11;47.49;100160.53;5070889;28;20454;-63
2022/08/05 11:08:08;;;;;;;6.70;3.13;;;;;;;28.09;48.09;100165.13;5071003;28;20836;-63
2022/08/05 11:10:36;;;;;;;5.13;2.70;;;;;;;28.06;47.80;100166.84;5072964;28;20263;-63
2022/08/05 11:13:01;;;;;;;3.33;2.07;;;;;;;28.15;47.07;100169.94;5072129;28;20425;-63
2022/08/05 11:15:33;;;;;;;4.87;2.40;;;;;;;28.10;47.34;100158.84;5087481;28;20444;-63
2022/08/05 11:18:13;;;;;;;3.70;2.17;;;;;;;28.10;47.88;100172.56;5069610;28;20213;-63
2022/08/05 11:20:49;;;;;;;3.03;2.40;;;;;;;28.13;47.56;100165.84;5070165;28;20466;-64
2022/08/05 11:23:40;;;;;;;5.17;2.70;;;;;;;28.19;47.09;100170.69;5070051;28;20455;-64
2022/08/05 11:26:10;;;;;;;2.97;2.47;;;;;;;28.15;47.29;100164.13;5082381;28;20941;-64
2022/08/05 11:28:36;;;;;;;4.57;2.40;;;;;;;28.16;47.28;100168.69;5071367;28;20436;-64
2022/08/05 11:31:01;;;;;;;4.33;2.43;;;;;;;28.16;46.62;100174.50;5070483;28;20437;-64
2022/08/05 11:33:39;;;;;;;4.40;2.60;;;;;;;28.19;46.83;100173.59;5070262;28;20915;-64